sensor_id;sensor_type;location;lat;lon;timestamp;pressure;altitude;pressure_sealevel;temperature;humidity
62548;BME280;48602;45.192;5.722;2023-08-08T00:01:03;99402.19;;;18.51;47.25
62548;BME280;48602;45.192;5.722;2023-08-08T00:03:29;99404.00;;;18.50;47.95
62548;BME280;48602;45.192;5.722;2023-08-08T00:05:54;99409.44;;;18.48;46.99
62548;BME280;48602;45.192;5.722;2023-08-08T00:08:20;99414.22;;;18.43;46.75
62548;BME280;48602;45.192;5.722;2023-08-08T00:10:45;99405.88;;;18.35;46.63
62548;BME280;48602;45.192;5.722;2023-08-08T00:13:10;99408.75;;;18.32;46.95
62548;BME280;48602;45.192;5.722;2023-08-08T00:15:36;99401.81;;;18.30;47.50
62548;BME280;48602;45.192;5.722;2023-08-08T00:18:01;99408.09;;;18.29;47.96
62548;BME280;48602;45.192;5.722;2023-08-08T00:20:27;99400.31;;;18.26;48.23
62548;BME280;48602;45.192;5.722;2023-08-08T00:22:52;99393.47;;;18.22;48.91
62548;BME280;48602;45.192;5.722;2023-08-08T00:25:18;99401.59;;;18.20;49.45
62548;BME280;48602;45.192;5.722;2023-08-08T00:27:43;99406.38;;;18.15;48.92
62548;BME280;48602;45.192;5.722;2023-08-08T00:30:10;99407.50;;;18.11;48.67
62548;BME280;48602;45.192;5.722;2023-08-08T00:32:36;99406.78;;;18.09;49.43
62548;BME280;48602;45.192;5.722;2023-08-08T00:35:01;99399.84;;;18.06;49.85
62548;BME280;48602;45.192;5.722;2023-08-08T00:37:27;99393.00;;;18.02;50.50
62548;BME280;48602;45.192;5.722;2023-08-08T00:39:52;99395.94;;;17.98;51.25
62548;BME280;48602;45.192;5.722;2023-08-08T00:42:17;99398.09;;;17.93;50.80
62548;BME280;48602;45.192;5.722;2023-08-08T00:44:43;99388.75;;;17.86;50.37
62548;BME280;48602;45.192;5.722;2023-08-08T00:47:09;99399.81;;;17.79;49.54
62548;BME280;48602;45.192;5.722;2023-08-08T00:49:35;99394.81;;;17.75;49.05
62548;BME280;48602;45.192;5.722;2023-08-08T00:52:02;99397.66;;;17.72;48.55
62548;BME280;48602;45.192;5.722;2023-08-08T00:54:28;99394.34;;;17.68;48.75
62548;BME280;48602;45.192;5.722;2023-08-08T00:56:53;99393.56;;;17.66;49.85
62548;BME280;48602;45.192;5.722;2023-08-08T00:59:19;99394.63;;;17.64;51.21
62548;BME280;48602;45.192;5.722;2023-08-08T01:01:45;99396.50;;;17.62;51.15
62548;BME280;48602;45.192;5.722;2023-08-08T01:04:11;99398.72;;;17.55;50.72
62548;BME280;48602;45.192;5.722;2023-08-08T01:09:18;99395.41;;;17.52;50.18
62548;BME280;48602;45.192;5.722;2023-08-08T01:11:47;99394.44;;;17.53;50.58
62548;BME280;48602;45.192;5.722;2023-08-08T01:14:16;99388.25;;;17.52;52.32
62548;BME280;48602;45.192;5.722;2023-08-08T01:16:42;99379.50;;;17.50;53.34
62548;BME280;48602;45.192;5.722;2023-08-08T01:19:12;99372.63;;;17.46;53.76
62548;BME280;48602;45.192;5.722;2023-08-08T01:21:43;99384.34;;;17.43;53.38
62548;BME280;48602;45.192;5.722;2023-08-08T01:24:23;99385.63;;;17.38;52.20
62548;BME280;48602;45.192;5.722;2023-08-08T01:26:49;99387.72;;;17.33;52.61
62548;BME280;48602;45.192;5.722;2023-08-08T01:29:15;99387.03;;;17.29;53.26
62548;BME280;48602;45.192;5.722;2023-08-08T01:31:40;99383.16;;;17.21;52.99
62548;BME280;48602;45.192;5.722;2023-08-08T01:34:06;99391.63;;;17.13;52.96
62548;BME280;48602;45.192;5.722;2023-08-08T01:36:38;99392.13;;;17.05;52.27
62548;BME280;48602;45.192;5.722;2023-08-08T01:39:09;99396.78;;;17.02;52.12
62548;BME280;48602;45.192;5.722;2023-08-08T01:41:38;99396.97;;;16.99;52.41
62548;BME280;48602;45.192;5.722;2023-08-08T01:44:04;99405.91;;;16.98;52.94
62548;BME280;48602;45.192;5.722;2023-08-08T01:46:31;99404.19;;;16.97;53.72
62548;BME280;48602;45.192;5.722;2023-08-08T01:48:58;99408.66;;;16.96;54.49
62548;BME280;48602;45.192;5.722;2023-08-08T01:51:25;99410.56;;;16.94;54.46
62548;BME280;48602;45.192;5.722;2023-08-08T01:53:51;99403.63;;;16.92;54.50
62548;BME280;48602;45.192;5.722;2023-08-08T01:56:16;99406.47;;;16.89;54.38
62548;BME280;48602;45.192;5.722;2023-08-08T01:58:42;99412.06;;;16.84;54.66
62548;BME280;48602;45.192;5.722;2023-08-08T02:01:07;99407.03;;;16.80;54.98
62548;BME280;48602;45.192;5.722;2023-08-08T02:03:32;99409.13;;;16.74;54.88
62548;BME280;48602;45.192;5.722;2023-08-08T02:05:58;99405.88;;;16.69;54.65
62548;BME280;48602;45.192;5.722;2023-08-08T02:08:23;99406.91;;;16.67;54.54
62548;BME280;48602;45.192;5.722;2023-08-08T02:10:48;99407.78;;;16.67;54.22
62548;BME280;48602;45.192;5.722;2023-08-08T02:13:14;99402.53;;;16.66;53.58
62548;BME280;48602;45.192;5.722;2023-08-08T02:15:39;99401.69;;;16.65;53.12
62548;BME280;48602;45.192;5.722;2023-08-08T02:18:05;99409.66;;;16.65;52.41
62548;BME280;48602;45.192;5.722;2023-08-08T02:20:30;99406.06;;;16.66;52.21
62548;BME280;48602;45.192;5.722;2023-08-08T02:22:56;99413.19;;;16.66;52.01
62548;BME280;48602;45.192;5.722;2023-08-08T02:25:21;99409.59;;;16.67;51.57
62548;BME280;48602;45.192;5.722;2023-08-08T02:27:46;99405.97;;;16.68;51.68
62548;BME280;48602;45.192;5.722;2023-08-08T02:30:12;99411.28;;;16.68;52.01
62548;BME280;48602;45.192;5.722;2023-08-08T02:32:38;99412.16;;;16.68;52.39
62548;BME280;48602;45.192;5.722;2023-08-08T02:35:03;99414.81;;;16.68;52.77
62548;BME280;48602;45.192;5.722;2023-08-08T02:37:29;99416.72;;;16.66;52.74
62548;BME280;48602;45.192;5.722;2023-08-08T02:39:54;99409.75;;;16.64;52.55
62548;BME280;48602;45.192;5.722;2023-08-08T02:42:20;99412.56;;;16.61;52.32
62548;BME280;48602;45.192;5.722;2023-08-08T02:44:45;99408.97;;;16.62;52.11
62548;BME280;48602;45.192;5.722;2023-08-08T02:47:10;99408.97;;;16.62;52.15
62548;BME280;48602;45.192;5.722;2023-08-08T02:49:36;99406.38;;;16.60;52.38
62548;BME280;48602;45.192;5.722;2023-08-08T02:52:01;99411.72;;;16.60;52.29
62548;BME280;48602;45.192;5.722;2023-08-08T02:54:27;99410.00;;;16.59;52.69
62548;BME280;48602;45.192;5.722;2023-08-08T02:56:52;99411.84;;;16.59;52.40
62548;BME280;48602;45.192;5.722;2023-08-08T02:59:17;99403.94;;;16.57;52.43
62548;BME280;48602;45.192;5.722;2023-08-08T03:01:43;99408.41;;;16.57;52.67
62548;BME280;48602;45.192;5.722;2023-08-08T03:04:08;99413.81;;;16.55;52.79
62548;BME280;48602;45.192;5.722;2023-08-08T03:06:33;99412.97;;;16.55;52.84
62548;BME280;48602;45.192;5.722;2023-08-08T03:08:59;99416.56;;;16.54;53.04
62548;BME280;48602;45.192;5.722;2023-08-08T03:11:24;99417.41;;;16.54;53.12
62548;BME280;48602;45.192;5.722;2023-08-08T03:13:50;99416.56;;;16.54;53.05
62548;BME280;48602;45.192;5.722;2023-08-08T03:16:15;99420.16;;;16.53;53.26
62548;BME280;48602;45.192;5.722;2023-08-08T03:18:40;99418.38;;;16.53;53.29
62548;BME280;48602;45.192;5.722;2023-08-08T03:21:06;99421.97;;;16.52;53.48
62548;BME280;48602;45.192;5.722;2023-08-08T03:23:32;99426.44;;;16.52;53.29
62548;BME280;48602;45.192;5.722;2023-08-08T03:25:57;99423.94;;;16.49;53.51
62548;BME280;48602;45.192;5.722;2023-08-08T03:28:22;99422.25;;;16.48;53.94
62548;BME280;48602;45.192;5.722;2023-08-08T03:30:48;99424.03;;;16.47;53.52
62548;BME280;48602;45.192;5.722;2023-08-08T03:33:13;99431.25;;;16.45;54.13
62548;BME280;48602;45.192;5.722;2023-08-08T03:35:39;99427.81;;;16.43;53.97
62548;BME280;48602;45.192;5.722;2023-08-08T03:38:04;99428.97;;;16.39;53.93
62548;BME280;48602;45.192;5.722;2023-08-08T03:40:30;99419.38;;;16.36;53.98
62548;BME280;48602;45.192;5.722;2023-08-08T03:42:55;99423.06;;;16.34;53.77
62548;BME280;48602;45.192;5.722;2023-08-08T03:45:21;99424.88;;;16.33;53.89
62548;BME280;48602;45.192;5.722;2023-08-08T03:47:46;99424.09;;;16.31;53.60
62548;BME280;48602;45.192;5.722;2023-08-08T03:50:12;99422.38;;;16.30;53.92
62548;BME280;48602;45.192;5.722;2023-08-08T03:52:37;99418.94;;;16.28;54.12
62548;BME280;48602;45.192;5.722;2023-08-08T03:55:04;99425.22;;;16.27;53.91
62548;BME280;48602;45.192;5.722;2023-08-08T03:57:29;99425.28;;;16.26;53.92
62548;BME280;48602;45.192;5.722;2023-08-08T03:59:55;99433.41;;;16.24;54.20
62548;BME280;48602;45.192;5.722;2023-08-08T04:02:20;99434.44;;;16.22;54.41
62548;BME280;48602;45.192;5.722;2023-08-08T04:04:46;99426.53;;;16.20;54.39
62548;BME280;48602;45.192;5.722;2023-08-08T04:07:11;99429.38;;;16.17;54.70
62548;BME280;48602;45.192;5.722;2023-08-08T04:09:36;99433.06;;;16.15;54.51
62548;BME280;48602;45.192;5.722;2023-08-08T04:12:02;99434.09;;;16.12;54.40
62548;BME280;48602;45.192;5.722;2023-08-08T04:14:27;99439.50;;;16.11;54.43
62548;BME280;48602;45.192;5.722;2023-08-08T04:16:53;99435.31;;;16.07;54.46
62548;BME280;48602;45.192;5.722;2023-08-08T04:19:18;99433.84;;;16.01;54.46
62548;BME280;48602;45.192;5.722;2023-08-08T04:21:44;99438.47;;;15.97;54.68
62548;BME280;48602;45.192;5.722;2023-08-08T04:24:09;99441.41;;;15.93;54.76
62548;BME280;48602;45.192;5.722;2023-08-08T04:26:34;99446.91;;;15.90;55.11
62548;BME280;48602;45.192;5.722;2023-08-08T04:29:00;99443.47;;;15.88;55.35
62548;BME280;48602;45.192;5.722;2023-08-08T04:31:25;99453.34;;;15.86;55.32
62548;BME280;48602;45.192;5.722;2023-08-08T04:33:51;99443.66;;;15.85;55.36
62548;BME280;48602;45.192;5.722;2023-08-08T04:36:17;99444.50;;;15.85;55.49
62548;BME280;48602;45.192;5.722;2023-08-08T04:38:42;99448.97;;;15.85;55.55
62548;BME280;48602;45.192;5.722;2023-08-08T04:41:07;99452.56;;;15.84;55.37
62548;BME280;48602;45.192;5.722;2023-08-08T04:43:33;99444.66;;;15.82;55.18
62548;BME280;48602;45.192;5.722;2023-08-08T04:45:58;99451.00;;;15.80;55.61
62548;BME280;48602;45.192;5.722;2023-08-08T04:48:23;99450.25;;;15.78;55.71
62548;BME280;48602;45.192;5.722;2023-08-08T04:50:49;99444.06;;;15.77;55.71
62548;BME280;48602;45.192;5.722;2023-08-08T04:53:14;99451.00;;;15.80;55.72
62548;BME280;48602;45.192;5.722;2023-08-08T04:55:39;99442.97;;;15.81;55.39
62548;BME280;48602;45.192;5.722;2023-08-08T04:58:05;99444.66;;;15.82;55.51
62548;BME280;48602;45.192;5.722;2023-08-08T05:00:30;99441.06;;;15.83;55.50
62548;BME280;48602;45.192;5.722;2023-08-08T05:02:56;99442.78;;;15.84;55.65
62548;BME280;48602;45.192;5.722;2023-08-08T05:05:21;99446.22;;;15.86;55.19
62548;BME280;48602;45.192;5.722;2023-08-08T05:07:46;99443.47;;;15.88;55.21
62548;BME280;48602;45.192;5.722;2023-08-08T05:10:12;99450.50;;;15.89;55.16
62548;BME280;48602;45.192;5.722;2023-08-08T05:12:37;99444.25;;;15.90;54.88
62548;BME280;48602;45.192;5.722;2023-08-08T05:15:03;99448.63;;;15.91;55.02
62548;BME280;48602;45.192;5.722;2023-08-08T05:17:32;99445.13;;;15.90;54.70
62548;BME280;48602;45.192;5.722;2023-08-08T05:19:57;99447.78;;;15.90;55.08
62548;BME280;48602;45.192;5.722;2023-08-08T05:22:23;99443.41;;;15.89;54.97
62548;BME280;48602;45.192;5.722;2023-08-08T05:24:48;99446.06;;;15.89;55.17
62548;BME280;48602;45.192;5.722;2023-08-08T05:27:13;99452.22;;;15.90;54.78
62548;BME280;48602;45.192;5.722;2023-08-08T05:29:39;99454.03;;;15.89;54.86
62548;BME280;48602;45.192;5.722;2023-08-08T05:32:07;99454.88;;;15.90;55.10
62548;BME280;48602;45.192;5.722;2023-08-08T05:34:33;99453.09;;;15.90;55.24
62548;BME280;48602;45.192;5.722;2023-08-08T05:36:59;99457.47;;;15.91;54.91
62548;BME280;48602;45.192;5.722;2023-08-08T05:39:24;99453.00;;;15.92;55.17
62548;BME280;48602;45.192;5.722;2023-08-08T05:41:49;99456.41;;;15.94;55.25
62548;BME280;48602;45.192;5.722;2023-08-08T05:44:15;99455.38;;;15.96;55.40
62548;BME280;48602;45.192;5.722;2023-08-08T05:46:40;99453.50;;;15.98;55.02
62548;BME280;48602;45.192;5.722;2023-08-08T05:49:06;99465.78;;;16.01;55.12
62548;BME280;48602;45.192;5.722;2023-08-08T05:51:32;99470.84;;;16.05;55.27
62548;BME280;48602;45.192;5.722;2023-08-08T05:53:57;99465.34;;;16.09;54.94
62548;BME280;48602;45.192;5.722;2023-08-08T05:56:24;99464.28;;;16.11;54.93
62548;BME280;48602;45.192;5.722;2023-08-08T05:58:49;99468.56;;;16.14;55.13
62548;BME280;48602;45.192;5.722;2023-08-08T06:01:14;99464.03;;;16.16;55.25
62548;BME280;48602;45.192;5.722;2023-08-08T06:03:40;99469.19;;;16.19;55.37
62548;BME280;48602;45.192;5.722;2023-08-08T06:06:06;99465.41;;;16.23;55.07
62548;BME280;48602;45.192;5.722;2023-08-08T06:08:31;99467.97;;;16.24;55.19
62548;BME280;48602;45.192;5.722;2023-08-08T06:10:57;99462.38;;;16.29;55.10
62548;BME280;48602;45.192;5.722;2023-08-08T06:13:23;99470.09;;;16.33;55.48
62548;BME280;48602;45.192;5.722;2023-08-08T06:15:48;99476.97;;;16.37;55.13
62548;BME280;48602;45.192;5.722;2023-08-08T06:18:13;99477.66;;;16.41;55.10
62548;BME280;48602;45.192;5.722;2023-08-08T06:20:39;99478.31;;;16.45;54.88
62548;BME280;48602;45.192;5.722;2023-08-08T06:23:04;99481.66;;;16.48;54.73
62548;BME280;48602;45.192;5.722;2023-08-08T06:25:30;99479.66;;;16.52;54.68
62548;BME280;48602;45.192;5.722;2023-08-08T06:27:55;99483.78;;;16.57;54.80
62548;BME280;48602;45.192;5.722;2023-08-08T06:30:21;99485.25;;;16.63;55.04
62548;BME280;48602;45.192;5.722;2023-08-08T06:32:46;99484.97;;;16.67;54.88
62548;BME280;48602;45.192;5.722;2023-08-08T06:35:12;99490.91;;;16.72;54.76
62548;BME280;48602;45.192;5.722;2023-08-08T06:37:37;99489.66;;;16.78;54.78
62548;BME280;48602;45.192;5.722;2023-08-08T06:40:03;99486.72;;;16.83;54.69
62548;BME280;48602;45.192;5.722;2023-08-08T06:42:29;99488.28;;;16.87;54.54
62548;BME280;48602;45.192;5.722;2023-08-08T06:44:54;99489.81;;;16.91;54.22
62548;BME280;48602;45.192;5.722;2023-08-08T06:47:20;99491.31;;;16.95;54.07
62548;BME280;48602;45.192;5.722;2023-08-08T06:49:45;99496.47;;;16.98;53.72
62548;BME280;48602;45.192;5.722;2023-08-08T06:52:10;99487.34;;;17.02;54.15
62548;BME280;48602;45.192;5.722;2023-08-08T06:54:36;99489.75;;;17.06;54.01
62548;BME280;48602;45.192;5.722;2023-08-08T06:57:01;99492.88;;;17.13;53.96
62548;BME280;48602;45.192;5.722;2023-08-08T06:59:27;99492.69;;;17.16;54.16
62548;BME280;48602;45.192;5.722;2023-08-08T07:01:53;99492.31;;;17.22;54.06
62548;BME280;48602;45.192;5.722;2023-08-08T07:04:18;99494.59;;;17.28;53.64
62548;BME280;48602;45.192;5.722;2023-08-08T07:06:44;99495.25;;;17.32;53.61
62548;BME280;48602;45.192;5.722;2023-08-08T07:09:12;99489.66;;;17.36;54.12
62548;BME280;48602;45.192;5.722;2023-08-08T07:11:39;99488.44;;;17.42;53.65
62548;BME280;48602;45.192;5.722;2023-08-08T07:14:05;99486.41;;;17.45;53.61
62548;BME280;48602;45.192;5.722;2023-08-08T07:16:30;99493.16;;;17.51;53.58
62548;BME280;48602;45.192;5.722;2023-08-08T07:18:56;99483.19;;;17.55;53.50
62548;BME280;48602;45.192;5.722;2023-08-08T07:21:21;99476.50;;;17.62;53.46
62548;BME280;48602;45.192;5.722;2023-08-08T07:23:46;99485.19;;;17.65;53.30
62548;BME280;48602;45.192;5.722;2023-08-08T07:26:12;99481.28;;;17.71;52.47
62548;BME280;48602;45.192;5.722;2023-08-08T07:28:38;99481.97;;;17.74;52.78
62548;BME280;48602;45.192;5.722;2023-08-08T07:31:04;99478.97;;;17.79;52.97
62548;BME280;48602;45.192;5.722;2023-08-08T07:33:29;99478.59;;;17.85;53.24
62548;BME280;48602;45.192;5.722;2023-08-08T07:35:55;99482.78;;;17.89;52.72
62548;BME280;48602;45.192;5.722;2023-08-08T07:38:20;99478.00;;;17.94;52.69
62548;BME280;48602;45.192;5.722;2023-08-08T07:40:45;99485.59;;;18.00;51.92
62548;BME280;48602;45.192;5.722;2023-08-08T07:43:11;99480.75;;;18.07;51.95
62548;BME280;48602;45.192;5.722;2023-08-08T07:45:37;99481.19;;;18.13;52.00
62548;BME280;48602;45.192;5.722;2023-08-08T07:48:03;99468.41;;;18.19;51.99
62548;BME280;48602;45.192;5.722;2023-08-08T07:50:29;99474.19;;;18.25;51.76
62548;BME280;48602;45.192;5.722;2023-08-08T07:52:54;99467.47;;;18.32;51.22
62548;BME280;48602;45.192;5.722;2023-08-08T07:55:20;99467.94;;;18.39;51.30
62548;BME280;48602;45.192;5.722;2023-08-08T07:57:45;99473.63;;;18.47;51.01
62548;BME280;48602;45.192;5.722;2023-08-08T08:00:11;99472.34;;;18.53;50.95
62548;BME280;48602;45.192;5.722;2023-08-08T08:02:38;99467.38;;;18.61;50.91
62548;BME280;48602;45.192;5.722;2023-08-08T08:05:04;99466.97;;;18.67;50.42
62548;BME280;48602;45.192;5.722;2023-08-08T08:07:33;99458.56;;;18.73;50.41
62548;BME280;48602;45.192;5.722;2023-08-08T08:09:59;99457.16;;;18.80;50.08
62548;BME280;48602;45.192;5.722;2023-08-08T08:12:24;99455.78;;;18.87;49.83
62548;BME280;48602;45.192;5.722;2023-08-08T08:14:49;99457.91;;;18.95;49.43
62548;BME280;48602;45.192;5.722;2023-08-08T08:17:15;99447.66;;;19.01;49.08
62548;BME280;48602;45.192;5.722;2023-08-08T08:19:40;99457.00;;;19.08;49.02
62548;BME280;48602;45.192;5.722;2023-08-08T08:22:06;99455.69;;;19.14;49.15
62548;BME280;48602;45.192;5.722;2023-08-08T08:24:31;99456.97;;;19.21;48.87
62548;BME280;48602;45.192;5.722;2023-08-08T08:26:56;99450.34;;;19.27;49.08
62548;BME280;48602;45.192;5.722;2023-08-08T08:29:22;99449.69;;;19.36;48.66
62548;BME280;48602;45.192;5.722;2023-08-08T08:31:47;99442.09;;;19.42;48.69
62548;BME280;48602;45.192;5.722;2023-08-08T08:34:13;99443.47;;;19.48;48.53
62548;BME280;48602;45.192;5.722;2023-08-08T08:36:38;99441.13;;;19.56;47.91
62548;BME280;48602;45.192;5.722;2023-08-08T08:39:03;99447.00;;;19.61;47.94
62548;BME280;48602;45.192;5.722;2023-08-08T08:41:31;99442.06;;;19.68;48.11
62548;BME280;48602;45.192;5.722;2023-08-08T08:43:58;99436.19;;;19.75;48.49
62548;BME280;48602;45.192;5.722;2023-08-08T08:46:26;99438.38;;;19.81;47.82
62548;BME280;48602;45.192;5.722;2023-08-08T08:48:54;99433.34;;;19.90;47.22
62548;BME280;48602;45.192;5.722;2023-08-08T08:51:21;99428.25;;;19.98;46.95
62548;BME280;48602;45.192;5.722;2023-08-08T08:53:46;99426.84;;;20.05;46.88
62548;BME280;48602;45.192;5.722;2023-08-08T08:56:14;99416.66;;;20.10;46.52
62548;BME280;48602;45.192;5.722;2023-08-08T08:58:42;99423.38;;;20.15;45.83
62548;BME280;48602;45.192;5.722;2023-08-08T09:01:09;99419.38;;;20.21;45.86
62548;BME280;48602;45.192;5.722;2023-08-08T09:03:35;99422.59;;;20.26;45.76
62548;BME280;48602;45.192;5.722;2023-08-08T09:06:01;99425.75;;;20.31;45.78
62548;BME280;48602;45.192;5.722;2023-08-08T09:08:27;99415.59;;;20.36;46.15
62548;BME280;48602;45.192;5.722;2023-08-08T09:10:53;99412.47;;;20.42;45.55
62548;BME280;48602;45.192;5.722;2023-08-08T09:13:18;99412.09;;;20.47;45.64
62548;BME280;48602;45.192;5.722;2023-08-08T09:15:47;99410.78;;;20.52;46.04
62548;BME280;48602;45.192;5.722;2023-08-08T09:18:13;99409.69;;;20.55;45.59
62548;BME280;48602;45.192;5.722;2023-08-08T09:20:38;99400.56;;;20.58;45.50
62548;BME280;48602;45.192;5.722;2023-08-08T09:23:04;99404.69;;;20.62;44.16
62548;BME280;48602;45.192;5.722;2023-08-08T09:25:29;99401.69;;;20.66;44.47
62548;BME280;48602;45.192;5.722;2023-08-08T09:27:55;99392.22;;;20.73;44.67
62548;BME280;48602;45.192;5.722;2023-08-08T09:30:21;99390.63;;;20.82;43.95
62548;BME280;48602;45.192;5.722;2023-08-08T09:32:46;99387.47;;;20.88;43.74
62548;BME280;48602;45.192;5.722;2023-08-08T09:35:12;99393.34;;;20.93;43.14
62548;BME280;48602;45.192;5.722;2023-08-08T09:37:38;99391.13;;;20.98;42.97
62548;BME280;48602;45.192;5.722;2023-08-08T09:40:05;99378.34;;;21.02;42.58
62548;BME280;48602;45.192;5.722;2023-08-08T09:42:33;99373.94;;;21.01;41.76
62548;BME280;48602;45.192;5.722;2023-08-08T09:44:59;99370.53;;;20.99;42.31
62548;BME280;48602;45.192;5.722;2023-08-08T09:47:25;99377.50;;;21.01;42.10
62548;BME280;48602;45.192;5.722;2023-08-08T09:49:58;99377.13;;;21.06;42.25
62548;BME280;48602;45.192;5.722;2023-08-08T09:52:24;99370.44;;;21.11;42.45
62548;BME280;48602;45.192;5.722;2023-08-08T09:54:52;99368.88;;;21.20;42.89
62548;BME280;48602;45.192;5.722;2023-08-08T09:57:17;99368.28;;;21.28;43.04
62548;BME280;48602;45.192;5.722;2023-08-08T09:59:44;99363.38;;;21.33;42.10
62548;BME280;48602;45.192;5.722;2023-08-08T10:02:14;99360.34;;;21.37;41.90
62548;BME280;48602;45.192;5.722;2023-08-08T10:04:44;99357.53;;;21.39;42.22
62548;BME280;48602;45.192;5.722;2023-08-08T10:07:10;99362.53;;;21.43;41.80
62548;BME280;48602;45.192;5.722;2023-08-08T10:09:35;99356.88;;;21.46;42.11
62548;BME280;48602;45.192;5.722;2023-08-08T10:12:04;99360.06;;;21.51;42.77
62548;BME280;48602;45.192;5.722;2023-08-08T10:14:31;99358.84;;;21.55;39.34
62548;BME280;48602;45.192;5.722;2023-08-08T10:16:58;99347.13;;;21.56;39.96
62548;BME280;48602;45.192;5.722;2023-08-08T10:19:23;99354.81;;;21.61;40.13
62548;BME280;48602;45.192;5.722;2023-08-08T10:21:56;99353.44;;;21.67;40.50
62548;BME280;48602;45.192;5.722;2023-08-08T10:24:22;99354.78;;;21.72;40.64
62548;BME280;48602;45.192;5.722;2023-08-08T10:26:56;99354.41;;;21.77;40.51
62548;BME280;48602;45.192;5.722;2023-08-08T10:29:24;99346.56;;;21.85;40.59
62548;BME280;48602;45.192;5.722;2023-08-08T10:34:35;99352.88;;;21.95;39.92
62548;BME280;48602;45.192;5.722;2023-08-08T10:37:04;99343.69;;;21.98;39.62
62548;BME280;48602;45.192;5.722;2023-08-08T10:39:30;99348.09;;;21.99;39.81
62548;BME280;48602;45.192;5.722;2023-08-08T10:42:01;99340.53;;;22.04;40.27
62548;BME280;48602;45.192;5.722;2023-08-08T10:44:28;99338.91;;;22.12;39.95
62548;BME280;48602;45.192;5.722;2023-08-08T10:46:53;99345.34;;;22.21;39.14
62548;BME280;48602;45.192;5.722;2023-08-08T10:49:20;99346.00;;;22.34;39.60
62548;BME280;48602;45.192;5.722;2023-08-08T10:51:47;99343.72;;;22.50;39.30
62548;BME280;48602;45.192;5.722;2023-08-08T10:54:22;99341.13;;;22.60;38.98
62548;BME280;48602;45.192;5.722;2023-08-08T10:56:50;99326.72;;;22.71;39.43
62548;BME280;48602;45.192;5.722;2023-08-08T10:59:26;99322.66;;;22.76;38.06
62548;BME280;48602;45.192;5.722;2023-08-08T11:01:52;99330.34;;;22.81;37.09
62548;BME280;48602;45.192;5.722;2023-08-08T11:04:19;99322.88;;;22.84;37.98
62548;BME280;48602;45.192;5.722;2023-08-08T11:06:45;99324.44;;;22.87;38.97
62548;BME280;48602;45.192;5.722;2023-08-08T11:09:12;99315.84;;;22.93;39.08
62548;BME280;48602;45.192;5.722;2023-08-08T11:11:39;99302.13;;;22.96;37.88
62548;BME280;48602;45.192;5.722;2023-08-08T11:14:23;99305.66;;;22.96;39.15
62548;BME280;48602;45.192;5.722;2023-08-08T11:16:51;99308.22;;;22.98;38.24
62548;BME280;48602;45.192;5.722;2023-08-08T11:19:17;99299.75;;;23.03;38.27
62548;BME280;48602;45.192;5.722;2023-08-08T11:21:46;99292.25;;;23.06;37.91
62548;BME280;48602;45.192;5.722;2023-08-08T11:24:12;99281.22;;;23.09;37.94
62548;BME280;48602;45.192;5.722;2023-08-08T11:26:40;99282.38;;;23.16;37.53
62548;BME280;48602;45.192;5.722;2023-08-08T11:29:06;99287.94;;;23.24;37.63
62548;BME280;48602;45.192;5.722;2023-08-08T11:31:32;99288.94;;;23.33;38.39
62548;BME280;48602;45.192;5.722;2023-08-08T11:33:59;99287.84;;;23.45;37.78
62548;BME280;48602;45.192;5.722;2023-08-08T11:36:28;99282.94;;;23.60;37.87
62548;BME280;48602;45.192;5.722;2023-08-08T11:38:54;99267.94;;;23.77;38.19
62548;BME280;48602;45.192;5.722;2023-08-08T11:41:22;99277.84;;;23.95;37.07
62548;BME280;48602;45.192;5.722;2023-08-08T11:43:50;99262.53;;;24.06;37.01
62548;BME280;48602;45.192;5.722;2023-08-08T11:46:16;99265.34;;;24.14;37.21
62548;BME280;48602;45.192;5.722;2023-08-08T11:48:43;99260.69;;;24.25;37.01
62548;BME280;48602;45.192;5.722;2023-08-08T11:51:13;99262.66;;;24.33;36.65
62548;BME280;48602;45.192;5.722;2023-08-08T11:53:48;99255.00;;;24.38;36.97
62548;BME280;48602;45.192;5.722;2023-08-08T11:56:15;99257.41;;;24.41;36.70
62548;BME280;48602;45.192;5.722;2023-08-08T11:58:40;99253.41;;;24.45;37.05
62548;BME280;48602;45.192;5.722;2023-08-08T12:01:06;99258.19;;;24.51;36.78
62548;BME280;48602;45.192;5.722;2023-08-08T12:03:31;99247.84;;;24.56;36.24
62548;BME280;48602;45.192;5.722;2023-08-08T12:05:57;99245.72;;;24.60;36.64
62548;BME280;48602;45.192;5.722;2023-08-08T12:08:23;99241.69;;;24.64;35.99
62548;BME280;48602;45.192;5.722;2023-08-08T12:10:50;99236.47;;;24.62;35.86
62548;BME280;48602;45.192;5.722;2023-08-08T12:13:20;99238.16;;;24.63;36.26
62548;BME280;48602;45.192;5.722;2023-08-08T12:15:47;99237.72;;;24.68;36.07
62548;BME280;48602;45.192;5.722;2023-08-08T12:18:16;99232.03;;;24.71;36.03
62548;BME280;48602;45.192;5.722;2023-08-08T12:20:42;99247.06;;;24.74;36.44
62548;BME280;48602;45.192;5.722;2023-08-08T12:23:08;99238.97;;;24.74;35.86
62548;BME280;48602;45.192;5.722;2023-08-08T12:25:33;99243.38;;;24.75;35.24
62548;BME280;48602;45.192;5.722;2023-08-08T12:27:59;99252.31;;;24.75;35.16
62548;BME280;48602;45.192;5.722;2023-08-08T12:30:24;99243.22;;;24.76;34.51
62548;BME280;48602;45.192;5.722;2023-08-08T12:32:49;99237.44;;;24.71;34.96
62548;BME280;48602;45.192;5.722;2023-08-08T12:35:15;99235.31;;;24.65;34.92
62548;BME280;48602;45.192;5.722;2023-08-08T12:37:41;99237.47;;;24.61;34.35
62548;BME280;48602;45.192;5.722;2023-08-08T12:40:07;99229.06;;;24.64;35.29
62548;BME280;48602;45.192;5.722;2023-08-08T12:42:33;99234.44;;;24.74;35.24
62548;BME280;48602;45.192;5.722;2023-08-08T12:44:59;99223.03;;;24.80;35.66
62548;BME280;48602;45.192;5.722;2023-08-08T12:47:24;99226.16;;;24.85;34.65
62548;BME280;48602;45.192;5.722;2023-08-08T12:49:49;99211.50;;;24.88;35.85
62548;BME280;48602;45.192;5.722;2023-08-08T12:52:15;99216.22;;;24.95;35.64
62548;BME280;48602;45.192;5.722;2023-08-08T12:54:40;99212.75;;;25.03;35.45
62548;BME280;48602;45.192;5.722;2023-08-08T12:57:06;99207.91;;;25.07;35.62
62548;BME280;48602;45.192;5.722;2023-08-08T12:59:31;99203.91;;;25.11;35.42